Ellenton, GA

9:29 AM EDT on July 28, 2014 (GMT -0400)
City of Moultrie Service Center (KGAMOULT2) Elev 299 ft | 31.19 °N, 83.79 °W | Change Station
Active Advisory: Heat Advisory

Current weather conditions updated 2 minutes ago

Clear
Clear
83.3 °F
Feels Like 93 °F
N
10.0
Wind Variable Wind from West
Gusts 10.0 mph

Today is forecast to be nearly the same temperature as yesterday. Afternoon thunderstorms.

Today
High -- | Low -- °F
--% Chance of Precip.
Yesterday
High -- | Low -- °F
Precip. -- in
6:49 AM 8:33 PM
New Moon, 2% visible
Pressure 30.02 in
Visibility 7.0 miles
Clouds Clear
Heat Index 93 °F
Dew Point 78 °F
Humidity 83%
Rainfall 0.00 in
Snow Depth Not available.
UV 3 out of 12
Pollen 6.00 out of 12
Air Quality Not available.
Flu Activity Not available.
METAR KMGR 281315Z AUTO 26007KT 7SM CLR 28/26 A3002 RMK AO2

More Conditions Fewer Conditions

Pressure 30.02 in
Visibility 7.0 miles
Clouds Clear
Heat Index 93 °F
Dew Point 78 °F
Humidity 83%
Rainfall 0.00 in
Snow Depth Not available.
UV 3 out of 12
Pollen 6.00 out of 12
Air Quality Not available.
Flu Activity Not available.
METAR KMGR 281315Z AUTO 26007KT 7SM CLR 28/26 A3002 RMK AO2

More Conditions Fewer Conditions

10-Day Weather Forecast

Almanac

Astronomy

Jul. 28, 2014 Rise Set
Actual Time 6:49 AM EDT 8:33 PM EDT
Civil Twilight 6:22 AM EDT 8:59 PM EDT
Nautical Twilight 5:50 AM EDT 9:31 PM EDT
Astronomical Twilight 5:16 AM EDT 10:05 PM EDT
Moon 8:20 AM EDT 9:26 PM EDT
Length of Visible Light 14h 37m
Length of Day
13h 43m
Tomorrow will be 1m 20s shorter.
New Moon, 2% of the Moon is Illuminated
Today
New Moon
Aug 3
First Quarter
Aug 10
Full
Aug 17
Last Quarter
Aug 25
New

Today's Extremes

State Highs State Lows

Community

WunderPhotos

Upload Photos

1,738,325 photos uploaded!

Nearby

Snow Depth

Station Depth Elevation
No new snow has been reported.

Earthquake Activity

City Distance Mag. Time & Date
No recent earthquake activity has been reported nearby.
Minimum magnitude displayed is 2.5.

Coastal Water Temperatures

Place Temperature
No Stations Reporting

Nearby Weather Stations

Station Location Temp. Heat Index Dew Point Humidity Wind Precip. Elev Updated Type
City of Moultrie Service Center, Moultrie, GA 83.3 °F 93 °F 78 °F 83% West  at  10.0 mph 0.00 in / hr 299 ft 9:27 AM EDT Normal
RAWS ADEL GA, Cecil, GA 78 °F 81 °F 75 °F 92% SW  at  5 mph 0.00 in / hr 231 ft 8:04 AM EDT MADIS
Adel, Georgia, Adel, GA 85.1 °F 98 °F 79 °F 82% SW  at  3.8 mph 0.00 in / hr 253 ft 9:29 AM EDT Rapid Fire
Wood Triple Lake Road, Tifton, GA 84.6 °F 97 °F 79 °F 83% SSW  at  2.0 mph 0.00 in / hr 322 ft 9:25 AM EDT Normal

Show More Stations Show Fewer Stations